createdAt,value
2022-10-28T03:47:19.408Z,101845.09
2022-10-28T03:50:22.369Z,101845.09
2022-10-28T03:53:27.590Z,101840.34
2022-10-28T03:56:31.742Z,101836.72
2022-10-28T03:59:34.016Z,101838.50
2022-10-28T04:02:36.631Z,101841.75
2022-10-28T04:05:39.169Z,101839.03
2022-10-28T04:08:41.524Z,101834.41
2022-10-28T04:11:44.141Z,101839.41
2022-10-28T04:14:46.479Z,101831.53
2022-10-28T04:17:49.029Z,101829.75
2022-10-28T04:20:51.327Z,101825.84
2022-10-28T04:23:53.957Z,101824.84
2022-10-28T04:26:56.255Z,101818.12
2022-10-28T04:29:58.922Z,101811.47
2022-10-28T04:33:01.240Z,101821.16
2022-10-28T04:36:04.198Z,101816.66
2022-10-28T04:39:06.605Z,101810.34
2022-10-28T04:42:09.219Z,101810.44
2022-10-28T04:45:11.686Z,101813.72
2022-10-28T04:48:14.433Z,101806.56
2022-10-28T04:51:16.725Z,101808.22
2022-10-28T04:54:19.279Z,101800.88
2022-10-28T04:57:21.559Z,101798.44
2022-10-28T05:00:25.462Z,101809.16
2022-10-28T05:03:27.771Z,101811.91
2022-10-28T05:06:30.433Z,101804.72
2022-10-28T05:09:32.738Z,101811.59
2022-10-28T05:12:35.293Z,101810.19
2022-10-28T05:15:37.850Z,101812.28
2022-10-28T05:18:40.552Z,101799.31
2022-10-28T05:21:42.948Z,101809.97
2022-10-28T05:24:45.583Z,101811.62
2022-10-28T05:27:48.149Z,101815.03
2022-10-28T05:30:50.886Z,101816.78
2022-10-28T05:33:53.166Z,101813.41
2022-10-28T05:36:55.648Z,101818.72
2022-10-28T05:39:58.128Z,101822.41
2022-10-28T05:43:01.884Z,101825.00
2022-10-28T05:46:04.978Z,101821.38
2022-10-28T05:49:08.538Z,101831.16
2022-10-28T05:52:11.083Z,101842.63
2022-10-28T05:55:13.895Z,101840.84
2022-10-28T05:58:16.622Z,101845.44
2022-10-28T06:01:19.183Z,101851.44
2022-10-28T06:04:21.747Z,101850.75
2022-10-28T06:07:24.595Z,101850.81
2022-10-28T06:10:27.236Z,101852.75
2022-10-28T06:13:27.994Z,101858.22
2022-10-28T06:16:30.922Z,101868.69
2022-10-28T06:19:33.330Z,101862.62
2022-10-28T06:22:35.951Z,101864.34
2022-10-28T06:25:38.807Z,101857.09
2022-10-28T06:28:41.458Z,101859.50
2022-10-28T06:31:43.885Z,101855.28
2022-10-28T06:34:46.468Z,101860.50
2022-10-28T06:37:53.898Z,101864.66
2022-10-28T06:40:57.947Z,101870.78
2022-10-28T06:44:00.318Z,101871.53
2022-10-28T06:47:04.355Z,101869.94
2022-10-28T06:50:07.106Z,101863.13
2022-10-28T06:53:10.595Z,101869.09
2022-10-28T06:56:12.929Z,101868.91
2022-10-28T06:59:15.658Z,101871.53
2022-10-28T07:02:18.065Z,101881.44
2022-10-28T07:05:21.592Z,101880.66
2022-10-28T07:08:24.010Z,101882.47
2022-10-28T07:11:26.660Z,101885.72
2022-10-28T07:14:29.465Z,101887.56
2022-10-28T07:17:32.021Z,101895.47
2022-10-28T07:20:34.393Z,101884.09
2022-10-28T07:23:37.015Z,101882.09
2022-10-28T07:26:39.288Z,101885.41
2022-10-28T07:29:41.960Z,101876.53
2022-10-28T07:32:44.353Z,101881.09
2022-10-28T07:35:47.146Z,101876.50
2022-10-28T07:38:51.675Z,101872.34
2022-10-28T07:41:54.285Z,101881.84
2022-10-28T07:44:56.487Z,101888.84
2022-10-28T07:47:59.082Z,101888.75
2022-10-28T07:51:04.773Z,101894.72
2022-10-28T07:54:07.741Z,101900.81
2022-10-28T07:57:09.989Z,101898.09
2022-10-28T08:00:13.298Z,101895.38
2022-10-28T08:03:15.821Z,101896.44
2022-10-28T08:06:20.449Z,101897.16
2022-10-28T08:09:23.013Z,101897.19
2022-10-28T08:12:25.722Z,101887.47
2022-10-28T08:15:29.813Z,101874.03
2022-10-28T08:18:32.372Z,101869.31
2022-10-28T08:21:34.925Z,101867.41
2022-10-28T08:24:37.277Z,101863.91
2022-10-28T08:27:42.157Z,101863.78
2022-10-28T08:30:57.285Z,101863.75
2022-10-28T08:34:08.936Z,101863.66
2022-10-28T08:37:11.542Z,101855.09
2022-10-28T08:40:14.729Z,101858.53
2022-10-28T08:43:52.781Z,101869.41
2022-10-28T08:51:16.168Z,101882.13
2022-10-28T08:54:27.155Z,101884.69
2022-10-28T08:57:57.642Z,101888.47
2022-10-28T09:01:00.903Z,101889.06
2022-10-28T09:04:10.878Z,101887.06
2022-10-28T09:07:24.733Z,101888.59
2022-10-28T09:10:59.592Z,101891.44
2022-10-28T09:14:33.313Z,101900.03
2022-10-28T09:17:55.101Z,101889.38
2022-10-28T09:21:04.841Z,101900.78
2022-10-28T09:24:24.068Z,101895.44
2022-10-28T09:27:42.129Z,101891.13
2022-10-28T09:31:18.764Z,101882.47
2022-10-28T09:34:24.268Z,101893.50
2022-10-28T09:37:32.103Z,101894.06
2022-10-28T09:40:36.665Z,101893.31
2022-10-28T09:43:48.133Z,101894.84
2022-10-28T09:46:54.994Z,101892.25
2022-10-28T09:50:01.189Z,101890.81
2022-10-28T09:53:18.764Z,101887.59
2022-10-28T09:56:21.326Z,101889.16
2022-10-28T09:59:24.012Z,101898.69
2022-10-28T10:02:27.756Z,101892.25
2022-10-28T10:05:34.158Z,101902.78
2022-10-28T10:08:37.510Z,101885.38
2022-10-28T10:11:52.233Z,101885.22
2022-10-28T10:14:58.607Z,101890.00
2022-10-28T10:18:04.270Z,101881.88
2022-10-28T10:21:06.813Z,101885.97
2022-10-28T10:24:30.214Z,101888.53
2022-10-28T10:27:32.573Z,101881.53
2022-10-28T10:30:39.742Z,101893.84
2022-10-28T10:33:42.196Z,101893.53
2022-10-28T10:36:54.083Z,101888.94
2022-10-28T10:40:31.061Z,101882.50
2022-10-28T10:43:36.498Z,101881.78
2022-10-28T10:46:38.715Z,101875.66
2022-10-28T10:49:41.266Z,101880.87
2022-10-28T10:52:49.835Z,101873.78
2022-10-28T10:55:56.004Z,101873.72
2022-10-28T10:59:05.872Z,101871.38
2022-10-28T11:02:31.306Z,101873.34
2022-10-28T11:05:38.072Z,101870.72
2022-10-28T11:08:43.954Z,101860.28
2022-10-28T11:11:46.192Z,101863.31
2022-10-28T11:14:56.937Z,101869.25
2022-10-28T11:18:16.742Z,101863.03
2022-10-28T11:21:25.380Z,101871.81
2022-10-28T11:24:34.007Z,101873.63
2022-10-28T11:28:01.565Z,101870.16
2022-10-28T11:31:47.608Z,101870.06
2022-10-28T11:35:08.564Z,101861.19
2022-10-28T11:38:23.192Z,101860.03
2022-10-28T11:41:50.420Z,101850.00
2022-10-28T11:45:03.341Z,101854.16
2022-10-28T11:48:05.795Z,101858.34
2022-10-28T11:51:25.681Z,101852.22
2022-10-28T11:54:28.218Z,101843.56
2022-10-28T11:57:57.387Z,101843.03
2022-10-28T12:01:09.184Z,101833.75
2022-10-28T12:04:21.197Z,101836.38
2022-10-28T12:07:50.394Z,101827.66
2022-10-28T12:11:00.998Z,101826.72
2022-10-28T12:14:34.166Z,101830.94
2022-10-28T12:17:55.280Z,101818.78
2022-10-28T12:21:31.646Z,101811.44
2022-10-28T12:24:36.955Z,101816.16
2022-10-28T12:27:43.732Z,101815.25
2022-10-28T12:30:48.675Z,101810.00
2022-10-28T12:33:58.908Z,101807.94
2022-10-28T12:37:13.275Z,101797.56
2022-10-28T12:40:29.532Z,101798.19
2022-10-28T12:43:52.349Z,101803.41
2022-10-28T12:47:14.775Z,101795.47
2022-10-28T12:50:44.600Z,101797.47
2022-10-28T12:53:49.174Z,101795.69
2022-10-28T12:57:16.861Z,101790.66
2022-10-28T13:00:54.331Z,101791.66
2022-10-28T13:03:58.153Z,101790.88
2022-10-28T13:07:15.442Z,101791.88
2022-10-28T13:10:34.435Z,101777.34
2022-10-28T13:13:58.063Z,101777.41
2022-10-28T13:17:18.780Z,101786.09
2022-10-28T13:20:48.337Z,101778.22
2022-10-28T13:24:17.065Z,101778.31
2022-10-28T13:27:20.818Z,101788.72
2022-10-28T13:30:23.808Z,101789.47
2022-10-28T13:33:28.414Z,101788.59
2022-10-28T13:36:36.764Z,101788.72
2022-10-28T13:39:43.889Z,101786.09
2022-10-28T13:42:48.929Z,101790.50
2022-10-28T13:45:55.965Z,101785.28
2022-10-28T13:49:25.084Z,101787.75
2022-10-28T13:52:28.732Z,101784.16
2022-10-28T13:55:40.493Z,101790.28
2022-10-28T13:58:51.153Z,101778.16
2022-10-28T14:02:07.807Z,101777.84
2022-10-28T14:05:23.225Z,101779.75
2022-10-28T14:08:30.960Z,101775.94
2022-10-28T14:11:33.571Z,101784.56
2022-10-28T14:14:36.353Z,101786.63
2022-10-28T14:17:41.579Z,101790.50
2022-10-28T14:20:59.074Z,101796.06
2022-10-28T14:24:09.022Z,101793.56
2022-10-28T14:27:39.437Z,101793.72
2022-10-28T14:31:07.996Z,101789.59
2022-10-28T14:34:13.249Z,101789.19
2022-10-28T14:37:45.802Z,101781.28
2022-10-28T14:40:54.134Z,101781.22
2022-10-28T14:44:18.737Z,101780.06
2022-10-28T14:47:39.702Z,101782.06
2022-10-28T14:50:47.745Z,101789.97
2022-10-28T14:53:54.831Z,101787.91
2022-10-28T14:56:57.650Z,101779.37
2022-10-28T15:00:07.877Z,101775.19
2022-10-28T15:03:11.821Z,101772.69
2022-10-28T15:06:37.323Z,101774.97
2022-10-28T15:09:40.730Z,101770.25
2022-10-28T15:12:48.980Z,101772.31
2022-10-28T15:15:59.317Z,101774.81
2022-10-28T15:19:06.273Z,101768.75
2022-10-28T15:22:16.922Z,101754.16
2022-10-28T15:25:22.471Z,101756.94
2022-10-28T15:28:25.166Z,101753.62
